Time;durP1;ratioP1;P1;durP2;ratioP2;P2;SDS_P1;SDS_P2;PMS_P1;PMS_P2;Temp;Humidity;BMP_temperature;BMP_pressure;BME280_temperature;BME280_humidity;BME280_pressure;Samples;Min_cycle;Max_cycle;Signal;HPM_P1;HPM_P2
2021/08/08 00:01:36;;;;;;;2.67;1.83;;;;;;;17.11;57.17;97051.25;127081;1095;62628;-58
2021/08/08 00:04:03;;;;;;;2.50;1.90;;;;;;;17.08;57.23;97043.64;126894;1095;62572;-56
2021/08/08 00:06:30;;;;;;;2.53;2.07;;;;;;;17.07;57.35;97043.81;126870;1095;62636;-57
2021/08/08 00:08:57;;;;;;;2.10;1.90;;;;;;;17.04;57.44;97047.59;126897;1095;62678;-59
2021/08/08 00:11:24;;;;;;;2.80;1.93;;;;;;;17.02;57.48;97037.20;126871;1095;62686;-59
2021/08/08 00:13:51;;;;;;;3.57;1.90;;;;;;;16.98;57.54;97032.40;126851;1095;62626;-58
2021/08/08 00:16:18;;;;;;;2.65;1.90;;;;;;;16.96;57.83;97040.49;126942;1095;62616;-57
2021/08/08 00:18:45;;;;;;;2.63;1.87;;;;;;;16.93;57.79;97035.52;127041;1095;62729;-59
2021/08/08 00:21:12;;;;;;;2.20;1.87;;;;;;;16.90;57.90;97043.75;127119;1093;62652;-60
2021/08/08 00:23:39;;;;;;;2.73;2.00;;;;;;;16.88;57.79;97045.73;127087;1095;63140;-58
2021/08/08 00:26:06;;;;;;;3.13;1.90;;;;;;;16.86;58.00;97042.41;126973;1095;62623;-59
2021/08/08 00:28:33;;;;;;;2.90;2.07;;;;;;;16.84;57.95;97033.02;127026;1093;62633;-60
2021/08/08 00:31:00;;;;;;;2.83;1.70;;;;;;;16.82;57.99;97034.97;127112;1095;62585;-60
2021/08/08 00:33:27;;;;;;;2.60;1.83;;;;;;;16.77;58.23;97038.91;127079;1095;62787;-60
2021/08/08 00:35:54;;;;;;;2.27;1.70;;;;;;;16.76;58.29;97033.80;126885;1095;62713;-60
2021/08/08 00:38:21;;;;;;;2.60;1.67;;;;;;;16.73;58.36;97042.89;126913;1095;62584;-55
2021/08/08 00:40:48;;;;;;;2.33;1.70;;;;;;;16.70;58.43;97048.44;126955;1095;62620;-51
2021/08/08 00:43:15;;;;;;;2.57;1.70;;;;;;;16.68;58.43;97052.20;127076;1094;62627;-56
2021/08/08 00:45:42;;;;;;;2.50;1.90;;;;;;;16.65;58.49;97061.28;127035;1093;62917;-57
2021/08/08 00:48:09;;;;;;;2.47;1.60;;;;;;;16.63;58.58;97057.13;126843;1095;62568;-57
2021/08/08 00:50:36;;;;;;;2.43;2.00;;;;;;;16.60;58.65;97058.30;126912;1093;62620;-55
2021/08/08 00:53:04;;;;;;;3.10;2.10;;;;;;;16.58;58.75;97062.88;126968;1095;62626;-60
2021/08/08 00:55:31;;;;;;;2.63;1.57;;;;;;;16.56;58.84;97072.78;127069;1094;62725;-61
2021/08/08 00:57:58;;;;;;;2.50;1.70;;;;;;;16.53;58.91;97070.45;127152;1095;62703;-56
2021/08/08 01:00:25;;;;;;;2.63;2.20;;;;;;;16.50;58.80;97066.33;127088;1095;62773;-58
2021/08/08 01:02:54;;;;;;;2.80;2.00;;;;;;;16.50;58.94;97068.97;126959;1095;62628;-61
2021/08/08 01:05:30;;;;;;;3.13;2.03;;;;;;;16.47;58.92;97063.17;127087;1095;62649;-57
2021/08/08 01:08:03;;;;;;;2.77;2.00;;;;;;;16.44;59.04;97063.47;127006;1094;62632;-58
2021/08/08 01:10:33;;;;;;;2.73;1.87;;;;;;;16.42;59.12;97070.73;126908;1093;62576;-54
2021/08/08 01:13:00;;;;;;;3.00;2.20;;;;;;;16.39;59.03;97069.22;126982;1095;63044;-58
2021/08/08 01:15:27;;;;;;;3.17;1.90;;;;;;;16.37;59.13;97078.28;127060;1095;62633;-58
2021/08/08 01:17:54;;;;;;;3.10;2.20;;;;;;;16.35;59.25;97080.23;126911;1095;62594;-57
2021/08/08 01:20:21;;;;;;;2.50;2.00;;;;;;;16.32;59.32;97075.29;126879;1095;62620;-55
2021/08/08 01:22:51;;;;;;;3.47;2.00;;;;;;;16.31;59.48;97079.71;126907;1095;62686;-54
2021/08/08 01:25:18;;;;;;;3.43;2.17;;;;;;;16.27;59.64;97071.30;126928;1095;62762;-60
2021/08/08 01:27:45;;;;;;;3.03;1.93;;;;;;;16.26;59.54;97072.27;126993;1095;62594;-60
2021/08/08 01:30:12;;;;;;;3.40;2.03;;;;;;;16.21;59.67;97069.27;127114;1094;62629;-60
2021/08/08 01:32:39;;;;;;;2.07;1.63;;;;;;;16.20;59.67;97062.34;127100;1095;62645;-61
2021/08/08 01:35:06;;;;;;;2.53;2.00;;;;;;;16.18;59.72;97066.14;126975;1093;62774;-57
2021/08/08 01:37:33;;;;;;;4.37;1.90;;;;;;;16.16;59.89;97060.17;127085;1095;63025;-60
2021/08/08 01:40:09;;;;;;;3.33;2.10;;;;;;;16.13;60.04;97063.96;126957;1095;62627;-59
2021/08/08 01:42:39;;;;;;;2.65;1.90;;;;;;;16.11;59.93;97063.27;126883;1093;62660;-57
2021/08/08 01:45:07;;;;;;;2.80;1.77;;;;;;;16.09;60.03;97067.89;126889;1095;62645;-56
2021/08/08 01:47:36;;;;;;;2.60;1.73;;;;;;;16.07;59.95;97059.28;126922;1095;62710;-51
2021/08/08 01:50:04;;;;;;;2.40;2.20;;;;;;;16.07;60.13;97055.83;126890;1095;62623;-60
2021/08/08 01:52:30;;;;;;;3.63;2.23;;;;;;;16.05;60.25;97061.27;126986;1094;62636;-60
2021/08/08 01:54:57;;;;;;;3.03;2.03;;;;;;;16.03;60.31;97050.02;126838;1094;63006;-55
2021/08/08 01:57:24;;;;;;;2.60;1.90;;;;;;;16.01;60.22;97047.55;126818;1095;62633;-59
2021/08/08 01:59:51;;;;;;;2.97;2.20;;;;;;;16.00;60.23;97055.63;126823;1095;62697;-59
2021/08/08 02:02:18;;;;;;;2.83;2.13;;;;;;;15.98;60.55;97060.20;126964;1093;62758;-59
2021/08/08 02:04:45;;;;;;;4.07;2.20;;;;;;;15.97;60.65;97062.02;126830;1095;62576;-59
2021/08/08 02:07:14;;;;;;;3.40;2.17;;;;;;;15.97;60.73;97061.20;126866;1094;62628;-56
2021/08/08 02:09:41;;;;;;;2.83;2.10;;;;;;;15.96;60.68;97060.38;126887;1095;62640;-58
2021/08/08 02:12:08;;;;;;;3.03;1.93;;;;;;;15.95;60.60;97061.36;126982;1095;62698;-59
2021/08/08 02:14:35;;;;;;;2.73;1.93;;;;;;;15.94;60.88;97057.05;126965;1094;62636;-60
2021/08/08 02:17:03;;;;;;;2.87;1.80;;;;;;;15.93;60.71;97054.58;126950;1095;62630;-58
2021/08/08 02:19:29;;;;;;;2.73;2.00;;;;;;;15.92;60.82;97066.92;126899;1093;62629;-57
2021/08/08 02:21:57;;;;;;;2.47;1.80;;;;;;;15.91;60.87;97061.81;126915;1095;62636;-59
2021/08/08 02:24:23;;;;;;;2.67;2.23;;;;;;;15.90;60.96;97065.41;126880;1095;62655;-60
2021/08/08 02:26:50;;;;;;;3.63;1.97;;;;;;;15.88;60.99;97062.94;126980;1095;62735;-60
2021/08/08 02:29:17;;;;;;;3.07;1.97;;;;;;;15.87;60.93;97057.83;126849;1094;62575;-61
2021/08/08 02:31:45;;;;;;;2.67;2.00;;;;;;;15.86;61.09;97061.45;126866;1093;62620;-60
2021/08/08 02:34:14;;;;;;;2.47;2.20;;;;;;;15.85;61.08;97057.96;126847;1093;62639;-51
2021/08/08 02:36:42;;;;;;;2.77;2.07;;;;;;;15.83;61.12;97069.66;127014;1094;63041;-57
2021/08/08 02:39:09;;;;;;;3.27;2.10;;;;;;;15.81;61.21;97066.33;127106;1095;62620;-56
2021/08/08 02:41:36;;;;;;;2.80;2.10;;;;;;;15.78;61.17;97063.03;126925;1094;62628;-61
2021/08/08 02:44:04;;;;;;;3.13;2.00;;;;;;;15.78;61.43;97060.39;126889;1093;62628;-55
2021/08/08 02:46:31;;;;;;;3.77;2.00;;;;;;;15.76;61.37;97065.00;126889;1095;62624;-60
2021/08/08 02:48:58;;;;;;;2.47;1.97;;;;;;;15.74;61.27;97074.85;126844;1095;62720;-59
2021/08/08 02:51:25;;;;;;;3.20;2.20;;;;;;;15.72;61.43;97071.55;126890;1095;62767;-59
2021/08/08 02:53:52;;;;;;;2.73;2.00;;;;;;;15.71;61.35;97075.14;126901;1095;62636;-51
2021/08/08 02:56:19;;;;;;;3.93;2.60;;;;;;;15.69;61.40;97078.92;126876;1095;62585;-59
2021/08/08 02:58:46;;;;;;;3.30;2.10;;;;;;;15.67;61.52;97079.09;126935;1095;62662;-59
2021/08/08 03:01:13;;;;;;;2.80;2.20;;;;;;;15.65;61.61;97078.39;126853;1095;62648;-55
2021/08/08 03:03:40;;;;;;;3.05;2.20;;;;;;;15.64;61.69;97078.55;126901;1095;62738;-59
2021/08/08 03:06:12;;;;;;;2.93;2.23;;;;;;;15.62;61.73;97078.69;126891;1094;62620;-57
2021/08/08 03:08:42;;;;;;;2.67;2.03;;;;;;;15.60;61.96;97080.63;127008;1095;62612;-59
2021/08/08 03:11:09;;;;;;;3.20;2.50;;;;;;;15.59;61.99;97089.52;126996;1094;62620;-57
2021/08/08 03:13:36;;;;;;;3.07;2.37;;;;;;;15.57;61.90;97086.19;127058;1095;62677;-52
2021/08/08 03:16:04;;;;;;;3.27;2.17;;;;;;;15.57;62.08;97085.36;127100;1095;62735;-57
2021/08/08 03:18:31;;;;;;;3.37;2.33;;;;;;;15.56;62.06;97081.08;126860;1095;62639;-54
2021/08/08 03:20:58;;;;;;;2.10;1.67;;;;;;;15.54;62.10;97083.88;127048;1095;62625;-59
2021/08/08 03:23:25;;;;;;;3.07;2.07;;;;;;;15.52;62.24;97086.63;127049;1095;62646;-57
2021/08/08 03:25:52;;;;;;;2.90;2.00;;;;;;;15.51;62.12;97079.72;126913;1095;62778;-58
2021/08/08 03:28:19;;;;;;;3.00;2.10;;;;;;;15.50;62.25;97079.88;127071;1095;62713;-56
2021/08/08 03:30:46;;;;;;;2.90;2.30;;;;;;;15.49;62.22;97088.77;127065;1095;62684;-56
2021/08/08 03:33:13;;;;;;;3.73;2.57;;;;;;;15.47;62.37;97090.70;127019;1094;62620;-56
2021/08/08 03:35:40;;;;;;;3.20;2.25;;;;;;;15.46;62.27;97089.05;126948;1095;62598;-58
2021/08/08 03:38:07;;;;;;;3.33;2.30;;;;;;;15.47;62.45;97090.70;126995;1095;62761;-53
2021/08/08 03:40:35;;;;;;;3.10;2.50;;;;;;;15.46;62.44;97094.32;126957;1095;62601;-63
2021/08/08 03:43:03;;;;;;;3.33;2.50;;;;;;;15.45;62.69;97098.77;126924;1095;62646;-61
2021/08/08 03:45:30;;;;;;;3.13;2.43;;;;;;;15.41;62.70;97091.31;127468;1093;62558;-62
2021/08/08 03:47:57;;;;;;;3.50;2.40;;;;;;;15.38;62.93;97099.50;126829;1095;62635;-62
2021/08/08 03:50:24;;;;;;;3.23;2.40;;;;;;;15.36;62.91;97104.10;126869;1095;62688;-62
2021/08/08 03:52:51;;;;;;;3.43;2.47;;;;;;;15.33;63.24;97104.39;126955;1093;62643;-62
2021/08/08 03:55:18;;;;;;;4.35;2.50;;;;;;;15.31;63.11;97112.45;126981;1095;62636;-63
2021/08/08 03:57:45;;;;;;;4.20;2.67;;;;;;;15.31;63.30;97104.55;126931;1095;62636;-62
2021/08/08 04:00:12;;;;;;;3.10;2.60;;;;;;;15.29;63.23;97114.38;127019;1095;62623;-63
2021/08/08 04:02:39;;;;;;;4.50;2.50;;;;;;;15.29;63.40;97115.20;127018;1093;62758;-60
2021/08/08 04:05:07;;;;;;;3.57;2.33;;;;;;;15.31;63.49;97111.63;127069;1095;62635;-62
2021/08/08 04:07:34;;;;;;;2.87;2.30;;;;;;;15.33;63.42;97120.19;127021;1094;62560;-62
2021/08/08 04:10:01;;;;;;;2.83;2.20;;;;;;;15.34;63.29;97124.47;127015;1095;62620;-61
2021/08/08 04:12:28;;;;;;;2.80;2.33;;;;;;;15.37;63.40;97137.36;126976;1094;62617;-61
2021/08/08 04:14:55;;;;;;;2.20;1.97;;;;;;;15.38;63.27;97124.03;126820;1094;62607;-60
2021/08/08 04:17:22;;;;;;;4.80;2.53;;;;;;;15.42;63.36;97127.20;126855;1095;62718;-60
2021/08/08 04:19:49;;;;;;;4.03;2.30;;;;;;;15.44;63.21;97130.53;126985;1095;62636;-62
2021/08/08 04:22:16;;;;;;;2.80;2.07;;;;;;;15.46;63.15;97123.30;127030;1094;62633;-62
2021/08/08 04:24:45;;;;;;;2.70;2.03;;;;;;;15.49;63.12;97130.91;127019;1093;62624;-62
2021/08/08 04:27:13;;;;;;;3.17;2.30;;;;;;;15.53;62.92;97132.27;126829;1095;62636;-62
2021/08/08 04:29:41;;;;;;;4.17;2.47;;;;;;;15.58;62.88;97130.02;126910;1095;62918;-62
2021/08/08 04:32:08;;;;;;;3.60;2.57;;;;;;;15.63;63.13;97133.03;126871;1093;62640;-62
2021/08/08 04:34:35;;;;;;;2.53;1.90;;;;;;;15.70;62.98;97134.10;126855;1095;62636;-61
2021/08/08 04:37:03;;;;;;;2.60;2.20;;;;;;;15.77;62.69;97129.90;126853;1094;62626;-62
2021/08/08 04:39:30;;;;;;;3.10;2.13;;;;;;;15.85;62.79;97141.48;126813;1094;62825;-62
2021/08/08 04:41:57;;;;;;;3.05;2.40;;;;;;;15.90;62.65;97126.03;126976;1094;62793;-64
2021/08/08 04:44:23;;;;;;;3.50;2.47;;;;;;;15.98;62.67;97131.38;126994;1095;62623;-65
2021/08/08 04:46:50;;;;;;;3.80;2.70;;;;;;;16.07;62.51;97134.92;126910;1095;62684;-62
2021/08/08 04:49:17;;;;;;;3.37;2.40;;;;;;;16.14;62.51;97142.08;126872;1095;62691;-62
2021/08/08 04:51:44;;;;;;;3.97;2.27;;;;;;;16.24;62.53;97139.34;126935;1095;62608;-61
2021/08/08 04:54:11;;;;;;;4.00;3.03;;;;;;;16.34;62.47;97139.25;126894;1095;62764;-62
2021/08/08 04:56:38;;;;;;;4.57;3.17;;;;;;;16.44;62.40;97143.44;127046;1095;62623;-62
2021/08/08 04:59:05;;;;;;;4.00;2.83;;;;;;;16.55;62.18;97142.38;126940;1094;62649;-62
2021/08/08 05:01:32;;;;;;;4.30;2.80;;;;;;;16.65;62.12;97139.63;126875;1092;62620;-61
2021/08/08 05:03:59;;;;;;;3.63;2.70;;;;;;;16.74;62.11;97144.83;126818;1095;62623;-62
2021/08/08 05:06:26;;;;;;;4.40;3.37;;;;;;;16.85;62.06;97140.25;126885;1095;62692;-62
2021/08/08 05:08:53;;;;;;;4.27;3.10;;;;;;;16.93;61.89;97142.94;126873;1095;62584;-62
2021/08/08 05:11:20;;;;;;;4.43;3.20;;;;;;;17.05;61.77;97139.02;126908;1095;62626;-60
2021/08/08 05:13:46;;;;;;;5.47;3.70;;;;;;;17.14;61.69;97134.60;126877;1095;62628;-63
2021/08/08 05:16:14;;;;;;;4.83;3.53;;;;;;;17.23;61.78;97142.39;126957;1093;62627;-63
2021/08/08 05:18:41;;;;;;;5.87;3.57;;;;;;;17.36;61.47;97141.13;127092;1095;62620;-62
2021/08/08 05:21:08;;;;;;;4.83;3.20;;;;;;;17.46;61.51;97139.16;127007;1093;62598;-63
2021/08/08 05:23:36;;;;;;;5.27;3.80;;;;;;;17.58;61.26;97139.70;127004;1095;62567;-65
2021/08/08 05:26:04;;;;;;;4.73;3.80;;;;;;;17.67;61.05;97144.02;126923;1095;62611;-64
2021/08/08 05:28:30;;;;;;;4.33;3.50;;;;;;;17.78;60.87;97149.02;127037;1095;62703;-64
2021/08/08 05:30:58;;;;;;;5.03;3.90;;;;;;;17.88;60.79;97144.39;127028;1094;62722;-64
2021/08/08 05:33:25;;;;;;;4.27;2.97;;;;;;;17.97;60.67;97140.77;127074;1094;63318;-62
2021/08/08 05:35:52;;;;;;;4.67;3.13;;;;;;;18.07;60.63;97148.54;127103;1093;63009;-63
2021/08/08 05:38:19;;;;;;;4.47;3.53;;;;;;;18.15;60.26;97139.79;126932;1095;62687;-60
2021/08/08 05:40:47;;;;;;;5.23;3.63;;;;;;;18.23;60.18;97143.27;126911;1095;63029;-61
2021/08/08 05:43:14;;;;;;;4.43;3.57;;;;;;;18.32;60.09;97136.98;127009;1094;62796;-62
2021/08/08 05:45:45;;;;;;;5.33;3.60;;;;;;;18.41;60.14;97134.33;126893;1095;62633;-63
2021/08/08 05:48:13;;;;;;;4.57;3.97;;;;;;;18.49;60.04;97144.91;126860;1093;62635;-63
2021/08/08 05:50:41;;;;;;;5.60;3.60;;;;;;;18.59;59.81;97148.20;126945;1093;62639;-63
2021/08/08 05:53:08;;;;;;;5.03;3.77;;;;;;;18.68;59.75;97147.19;126941;1095;62620;-63
2021/08/08 05:55:44;;;;;;;5.80;4.07;;;;;;;18.78;59.64;97147.85;126908;1095;62752;-62
2021/08/08 05:58:11;;;;;;;5.10;3.40;;;;;;;18.90;59.65;97136.89;126912;1095;63066;-63
2021/08/08 06:00:38;;;;;;;4.57;3.77;;;;;;;18.99;59.45;97144.63;127091;1093;62639;-62
2021/08/08 06:03:11;;;;;;;5.83;3.47;;;;;;;19.10;59.35;97139.98;127417;1088;62630;-61
2021/08/08 06:05:38;;;;;;;4.80;3.30;;;;;;;19.19;59.19;97137.13;127030;1095;62705;-60
2021/08/08 06:08:05;;;;;;;4.83;3.50;;;;;;;19.28;59.13;97130.80;127073;1095;62739;-61
2021/08/08 06:10:32;;;;;;;4.53;2.93;;;;;;;19.38;58.78;97143.01;126913;1095;62596;-61
2021/08/08 06:12:59;;;;;;;4.67;3.30;;;;;;;19.47;58.88;97134.02;126980;1095;62623;-63
2021/08/08 06:15:26;;;;;;;4.93;3.90;;;;;;;19.55;58.69;97139.25;126988;1095;62671;-63
2021/08/08 06:17:53;;;;;;;4.50;3.40;;;;;;;19.64;58.40;97132.11;126985;1095;62537;-62
2021/08/08 06:20:20;;;;;;;4.53;3.37;;;;;;;19.72;58.44;97130.23;126886;1095;62659;-63
2021/08/08 06:22:48;;;;;;;4.40;2.87;;;;;;;19.80;58.07;97127.54;127065;1095;62642;-62
2021/08/08 06:25:15;;;;;;;3.90;2.73;;;;;;;19.89;58.16;97130.14;127005;1095;62620;-61
2021/08/08 06:27:42;;;;;;;5.37;3.67;;;;;;;19.98;57.96;97145.00;126937;1095;63044;-61
2021/08/08 06:30:10;;;;;;;4.00;3.10;;;;;;;20.07;57.63;97144.76;126831;1095;62674;-60
2021/08/08 06:32:37;;;;;;;3.90;3.10;;;;;;;20.17;57.54;97141.03;126843;1095;63063;-61
2021/08/08 06:35:05;;;;;;;3.85;2.85;;;;;;;20.26;57.38;97143.44;126920;1095;62823;-64
2021/08/08 06:37:32;;;;;;;3.53;3.10;;;;;;;20.34;57.12;97146.03;127028;1095;62620;-63
2021/08/08 06:39:59;;;;;;;3.80;3.00;;;;;;;20.45;57.12;97151.91;127047;1095;62639;-64
2021/08/08 06:42:26;;;;;;;4.17;3.23;;;;;;;20.54;56.81;97156.99;126901;1095;62584;-63
2021/08/08 06:44:53;;;;;;;3.20;2.77;;;;;;;20.64;56.53;97164.70;126914;1095;62623;-63
2021/08/08 06:47:20;;;;;;;3.33;2.47;;;;;;;20.74;56.62;97161.78;126883;1095;62659;-60
2021/08/08 06:49:47;;;;;;;4.27;2.90;;;;;;;20.82;56.29;97151.90;126981;1095;62559;-64
2021/08/08 06:52:14;;;;;;;3.10;2.40;;;;;;;20.92;56.10;97154.28;127004;1095;62559;-66
2021/08/08 06:54:41;;;;;;;3.30;2.40;;;;;;;21.03;56.04;97151.19;127020;1095;62760;-62
2021/08/08 06:57:08;;;;;;;3.57;2.47;;;;;;;21.14;55.76;97157.86;126955;1095;62772;-64
2021/08/08 06:59:39;;;;;;;3.70;2.90;;;;;;;21.25;55.67;97153.91;126874;1095;62612;-63
2021/08/08 07:02:07;;;;;;;3.47;2.60;;;;;;;21.37;55.33;97160.44;126789;1095;63054;-62
2021/08/08 07:04:34;;;;;;;3.25;2.50;;;;;;;21.47;55.17;97157.48;126916;1095;62664;-62
2021/08/08 07:07:01;;;;;;;2.73;2.20;;;;;;;21.57;54.97;97160.67;126864;1095;62682;-64
2021/08/08 07:09:28;;;;;;;3.07;2.43;;;;;;;21.69;54.81;97164.51;126948;1095;62750;-62
2021/08/08 07:11:54;;;;;;;3.23;2.50;;;;;;;21.80;54.56;97166.66;126904;1095;62569;-62
2021/08/08 07:14:21;;;;;;;3.30;2.37;;;;;;;21.90;54.41;97163.70;127025;1095;62606;-64
2021/08/08 07:16:48;;;;;;;2.93;2.30;;;;;;;22.01;54.28;97173.04;127081;1095;62632;-60
2021/08/08 07:19:15;;;;;;;3.33;2.43;;;;;;;22.12;53.90;97180.54;126939;1095;62652;-61
2021/08/08 07:21:42;;;;;;;3.37;2.47;;;;;;;22.23;53.67;97180.05;126845;1095;62703;-62
2021/08/08 07:24:09;;;;;;;3.30;2.50;;;;;;;22.34;53.41;97184.85;126963;1095;62627;-63
2021/08/08 07:26:36;;;;;;;2.70;2.10;;;;;;;22.46;53.13;97184.32;127014;1095;62649;-65
2021/08/08 07:29:03;;;;;;;2.77;2.00;;;;;;;22.55;52.91;97181.33;126912;1095;62613;-62
2021/08/08 07:31:30;;;;;;;2.33;1.93;;;;;;;22.66;52.25;97172.01;127037;1095;62661;-62
2021/08/08 07:33:57;;;;;;;3.00;2.23;;;;;;;22.76;52.22;97158.34;126966;1095;62673;-63
2021/08/08 07:36:24;;;;;;;2.90;1.97;;;;;;;22.87;52.21;97155.13;126828;1095;62611;-62
2021/08/08 07:38:51;;;;;;;2.43;2.10;;;;;;;22.96;51.74;97159.31;126822;1095;62572;-64
2021/08/08 07:41:18;;;;;;;2.47;1.90;;;;;;;23.08;51.66;97162.27;126992;1095;62607;-63
2021/08/08 07:43:45;;;;;;;2.70;2.03;;;;;;;23.18;51.57;97162.73;126821;1095;62610;-63
2021/08/08 07:46:12;;;;;;;2.70;1.77;;;;;;;23.28;51.37;97163.19;126922;1095;63003;-61
2021/08/08 07:48:39;;;;;;;3.83;2.30;;;;;;;23.39;50.91;97161.82;127015;1095;62581;-63
2021/08/08 07:51:06;;;;;;;3.23;2.20;;;;;;;23.50;50.71;97165.75;127010;1095;62562;-61
2021/08/08 07:53:33;;;;;;;2.43;1.97;;;;;;;23.60;50.47;97163.53;126856;1093;62610;-62
2021/08/08 07:56:01;;;;;;;2.63;2.10;;;;;;;23.69;50.19;97162.36;126971;1095;62616;-64
2021/08/08 07:58:27;;;;;;;2.20;1.93;;;;;;;23.79;50.00;97168.14;126904;1095;62719;-63
2021/08/08 08:00:54;;;;;;;3.30;2.37;;;;;;;23.88;49.97;97166.93;126909;1095;62615;-61
2021/08/08 08:03:21;;;;;;;2.87;1.90;;;;;;;23.98;49.92;97160.38;126932;1095;62607;-63
2021/08/08 08:05:48;;;;;;;2.30;2.10;;;;;;;24.07;49.35;97159.16;126837;1095;62680;-61
2021/08/08 08:08:15;;;;;;;1.97;1.77;;;;;;;24.16;49.41;97157.95;126909;1095;63012;-63
2021/08/08 08:10:42;;;;;;;3.07;2.10;;;;;;;24.25;49.15;97158.58;126909;1095;62748;-63
2021/08/08 08:13:09;;;;;;;2.50;1.93;;;;;;;24.35;48.97;97162.48;126870;1095;62623;-62
2021/08/08 08:15:36;;;;;;;2.97;1.80;;;;;;;24.46;48.74;97160.28;126871;1095;62678;-61
2021/08/08 08:18:03;;;;;;;2.53;1.87;;;;;;;24.57;48.83;97165.81;126902;1095;62612;-63
2021/08/08 08:20:30;;;;;;;2.10;1.70;;;;;;;24.69;48.50;97175.90;126918;1095;62617;-61
2021/08/08 08:22:57;;;;;;;2.13;1.77;;;;;;;24.78;48.28;97171.98;127018;1095;62612;-62
2021/08/08 08:25:24;;;;;;;2.40;1.93;;;;;;;24.86;47.89;97175.23;126991;1095;62620;-63
2021/08/08 08:27:51;;;;;;;2.87;2.00;;;;;;;24.98;47.58;97169.28;127028;1095;62575;-62
2021/08/08 08:30:18;;;;;;;3.00;2.13;;;;;;;25.07;47.53;97168.03;126981;1095;63013;-63
2021/08/08 08:32:45;;;;;;;3.37;2.07;;;;;;;25.17;47.38;97165.77;126841;1095;62620;-62
2021/08/08 08:35:12;;;;;;;3.30;2.13;;;;;;;25.28;47.09;97162.45;126997;1095;62612;-63
2021/08/08 08:37:39;;;;;;;2.50;1.70;;;;;;;25.38;46.97;97160.16;127004;1093;62607;-63
2021/08/08 08:40:07;;;;;;;2.10;1.90;;;;;;;25.47;46.78;97150.04;127086;1095;63304;-62
2021/08/08 08:42:35;;;;;;;2.23;1.73;;;;;;;25.57;46.28;97152.26;126896;1095;62540;-63
2021/08/08 08:45:03;;;;;;;2.53;1.60;;;;;;;25.67;46.03;97157.97;126898;1095;62596;-62
2021/08/08 08:47:30;;;;;;;2.23;1.70;;;;;;;25.77;45.97;97157.54;126855;1095;62693;-63
2021/08/08 08:50:01;;;;;;;2.50;1.70;;;;;;;25.88;45.73;97165.73;126822;1095;62578;-61
2021/08/08 08:52:28;;;;;;;2.03;1.30;;;;;;;26.00;45.42;97170.39;126820;1095;62562;-62
2021/08/08 08:54:55;;;;;;;1.73;1.57;;;;;;;26.11;45.15;97170.54;126880;1095;62610;-63
2021/08/08 08:57:22;;;;;;;2.70;1.90;;;;;;;26.25;44.99;97175.78;127016;1095;62585;-63
2021/08/08 08:59:49;;;;;;;2.10;1.70;;;;;;;26.35;44.53;97166.25;127058;1093;62636;-63
2021/08/08 09:02:16;;;;;;;2.07;1.70;;;;;;;26.47;44.28;97169.06;126929;1095;63029;-62
2021/08/08 09:04:43;;;;;;;2.23;1.80;;;;;;;26.59;44.12;97167.32;126911;1095;62623;-62
2021/08/08 09:07:10;;;;;;;1.97;1.60;;;;;;;26.72;43.60;97182.48;127027;1095;62619;-66
2021/08/08 09:09:37;;;;;;;2.03;1.53;;;;;;;26.84;43.62;97169.98;126945;1095;62667;-63
2021/08/08 09:12:05;;;;;;;2.30;1.60;;;;;;;26.97;43.25;97173.59;126814;1095;62686;-61
2021/08/08 09:14:33;;;;;;;2.00;1.43;;;;;;;27.09;42.75;97171.85;127022;1095;62612;-63
2021/08/08 09:17:00;;;;;;;2.13;1.57;;;;;;;27.21;42.55;97175.42;127027;1095;62562;-62
2021/08/08 09:19:29;;;;;;;2.00;1.65;;;;;;;27.32;41.94;97169.33;126998;1095;62613;-62
2021/08/08 09:21:57;;;;;;;1.87;1.40;;;;;;;27.41;41.79;97167.17;126962;1095;62599;-62
2021/08/08 09:24:30;;;;;;;1.80;1.40;;;;;;;27.52;41.39;97168.27;126829;1095;62705;-63
2021/08/08 09:27:10;;;;;;;1.83;1.33;;;;;;;27.62;41.20;97164.00;126821;1095;62595;-62
2021/08/08 09:29:39;;;;;;;1.97;1.40;;;;;;;27.76;40.84;97161.18;126949;1095;62626;-63
2021/08/08 09:32:07;;;;;;;1.87;1.50;;;;;;;27.88;40.47;97165.56;127087;1095;62675;-62
2021/08/08 09:34:44;;;;;;;2.13;1.37;;;;;;;27.97;40.43;97168.75;127009;1095;62631;-62
2021/08/08 09:37:14;;;;;;;1.60;1.20;;;;;;;28.08;40.21;97159.09;126845;1095;62757;-61
2021/08/08 09:39:43;;;;;;;1.90;1.43;;;;;;;28.20;39.82;97168.02;126838;1095;62620;-63
2021/08/08 09:42:11;;;;;;;;;;;;;;;28.32;38.27;97168.03;126886;1095;63063;-61
2021/08/08 09:44:49;;;;;;;2.10;1.20;;;;;;;28.41;39.73;97159.42;126850;1093;62556;-60
2021/08/08 09:47:17;;;;;;;1.70;1.20;;;;;;;28.54;39.28;97168.34;126856;1095;62559;-62
2021/08/08 09:49:55;;;;;;;1.93;1.20;;;;;;;28.66;38.80;97166.50;126876;1095;62735;-62
2021/08/08 09:52:22;;;;;;;1.93;1.20;;;;;;;28.77;38.19;97162.98;126990;1095;62661;-63
2021/08/08 09:54:49;;;;;;;2.40;1.57;;;;;;;28.90;37.86;97167.32;127018;1095;62575;-62
2021/08/08 09:57:16;;;;;;;1.90;1.23;;;;;;;29.00;37.55;97172.14;127011;1095;62879;-61
2021/08/08 09:59:50;;;;;;;1.33;1.13;;;;;;;29.11;37.19;97168.61;127050;1095;62599;-62
2021/08/08 10:02:21;;;;;;;1.57;1.00;;;;;;;29.21;37.01;97171.52;126965;1095;62758;-62
2021/08/08 10:04:48;;;;;;;1.40;1.23;;;;;;;29.31;36.51;97166.38;126983;1095;62572;-62
2021/08/08 10:07:16;;;;;;;2.27;1.20;;;;;;;29.39;36.14;97170.56;127079;1095;62623;-63
2021/08/08 10:09:48;;;;;;;1.40;1.20;;;;;;;29.47;36.14;97164.00;127065;1093;62604;-62
2021/08/08 10:12:41;;;;;;;1.40;1.20;;;;;;;29.55;35.79;97163.67;126976;1095;63018;-61
2021/08/08 10:15:08;;;;;;;1.20;1.10;;;;;;;29.64;35.50;97156.85;126935;1095;62709;-62
2021/08/08 10:17:35;;;;;;;1.40;1.10;;;;;;;29.72;35.42;97155.63;126885;1095;62577;-63
2021/08/08 10:20:03;;;;;;;2.00;1.00;;;;;;;29.80;34.98;97156.08;126831;1095;62578;-63
2021/08/08 10:22:34;;;;;;;1.43;0.85;;;;;;;29.87;34.94;97158.64;126913;1095;62610;-62
2021/08/08 10:25:01;;;;;;;1.47;1.03;;;;;;;29.95;34.56;97152.84;126833;1095;62578;-62
2021/08/08 10:27:29;;;;;;;1.20;1.00;;;;;;;30.03;34.25;97154.34;126958;1094;62610;-62
2021/08/08 10:29:57;;;;;;;1.50;1.17;;;;;;;30.11;34.09;97156.66;126836;1095;62659;-62
2021/08/08 10:32:25;;;;;;;1.10;1.00;;;;;;;30.18;33.90;97160.03;126822;1095;62585;-64
2021/08/08 10:34:53;;;;;;;1.10;1.00;;;;;;;30.26;33.73;97158.83;126991;1095;62606;-63
2021/08/08 10:37:24;;;;;;;1.20;1.00;;;;;;;30.32;33.33;97158.69;127024;1095;62686;-64
2021/08/08 10:39:52;;;;;;;1.40;1.05;;;;;;;30.38;33.29;97155.00;126989;1095;62751;-61
2021/08/08 10:42:21;;;;;;;1.20;1.10;;;;;;;30.47;33.14;97168.09;127028;1095;62626;-61
2021/08/08 10:44:49;;;;;;;1.23;1.00;;;;;;;30.53;32.83;97165.22;126937;1095;62610;-63
2021/08/08 10:47:28;;;;;;;1.23;1.03;;;;;;;30.60;32.69;97165.05;126970;1095;62649;-63
2021/08/08 10:50:14;;;;;;;2.37;1.20;;;;;;;30.65;32.34;97165.16;126878;1095;62585;-63
2021/08/08 10:52:42;;;;;;;2.70;1.10;;;;;;;30.72;32.19;97165.82;126901;1095;62742;-61
2021/08/08 10:55:27;;;;;;;0.97;0.87;;;;;;;30.78;32.13;97167.52;126908;1095;62610;-63
2021/08/08 10:57:54;;;;;;;1.55;1.10;;;;;;;30.85;31.90;97175.47;126854;1095;62615;-61
2021/08/08 11:00:21;;;;;;;1.57;1.00;;;;;;;30.89;31.86;97171.22;126942;1095;62607;-61
2021/08/08 11:02:48;;;;;;;1.50;1.20;;;;;;;30.94;31.69;97174.80;126919;1093;62597;-63
2021/08/08 11:05:16;;;;;;;1.03;0.90;;;;;;;31.03;31.65;97168.99;126850;1095;62616;-63
2021/08/08 11:07:44;;;;;;;;;;;;;;;31.10;30.95;97164.22;126914;1095;62598;-62
2021/08/08 11:10:11;;;;;;;1.95;1.20;;;;;;;31.15;31.70;97175.08;126898;1095;62639;-62
2021/08/08 11:12:39;;;;;;;2.23;1.30;;;;;;;31.21;31.40;97163.31;126932;1095;62559;-61
2021/08/08 11:15:09;;;;;;;2.05;1.20;;;;;;;31.26;31.14;97168.77;126812;1095;62635;-61
2021/08/08 11:17:37;;;;;;;2.05;1.25;;;;;;;31.32;31.03;97167.80;127028;1095;62773;-62
2021/08/08 11:20:05;;;;;;;1.40;1.10;;;;;;;31.37;30.93;97167.86;126905;1095;62597;-63
2021/08/08 11:22:32;;;;;;;1.53;1.23;;;;;;;31.43;30.87;97174.14;126937;1095;62995;-66
2021/08/08 11:25:01;;;;;;;1.40;1.30;;;;;;;31.49;30.66;97169.64;126863;1095;62659;-61
2021/08/08 11:27:39;;;;;;;2.03;1.20;;;;;;;31.53;30.48;97166.19;126947;1095;62674;-61
2021/08/08 11:30:08;;;;;;;1.58;1.30;;;;;;;31.56;30.33;97164.85;126930;1095;62575;-61